createdAt,value
2018-04-14T00:00:00.708Z,10.09
2018-04-14T00:02:27.644Z,10.06
2018-04-14T00:04:54.569Z,10.05
2018-04-14T00:07:21.490Z,10.06
2018-04-14T00:09:48.379Z,10.05
2018-04-14T00:12:15.300Z,9.94
2018-04-14T00:14:42.989Z,9.95
2018-04-14T00:17:09.886Z,9.89
2018-04-14T00:19:36.861Z,9.90
2018-04-14T00:22:04.540Z,9.96
2018-04-14T00:24:31.416Z,9.85
2018-04-14T00:26:58.656Z,9.90
2018-04-14T00:29:25.542Z,9.94
2018-04-14T00:31:52.441Z,9.91
2018-04-14T00:34:19.392Z,9.91
2018-04-14T00:36:46.264Z,9.95
2018-04-14T00:39:13.432Z,9.87
2018-04-14T00:41:40.329Z,9.91
2018-04-14T00:44:07.278Z,9.84
2018-04-14T00:46:34.335Z,9.89
2018-04-14T00:49:01.207Z,9.80
2018-04-14T00:51:28.067Z,9.93
2018-04-14T00:53:56.025Z,9.92
2018-04-14T00:56:22.992Z,9.91
2018-04-14T00:58:50.615Z,9.89
2018-04-14T01:01:17.581Z,9.89
2018-04-14T01:03:44.802Z,9.91
2018-04-14T01:06:11.715Z,9.89
2018-04-14T01:08:38.584Z,9.77
2018-04-14T01:11:05.522Z,9.81
2018-04-14T01:13:32.392Z,9.84
2018-04-14T01:15:59.457Z,9.81
2018-04-14T01:18:26.316Z,9.82
2018-04-14T01:20:53.189Z,9.82
2018-04-14T01:23:20.182Z,9.78
2018-04-14T01:25:47.102Z,9.87
2018-04-14T01:28:14.060Z,9.88
2018-04-14T01:30:41.260Z,9.90
2018-04-14T01:33:08.201Z,9.86
2018-04-14T01:35:35.177Z,9.80
2018-04-14T01:38:02.836Z,9.83
2018-04-14T01:40:30.498Z,9.90
2018-04-14T01:42:58.160Z,9.80
2018-04-14T01:45:25.941Z,9.89
2018-04-14T01:47:52.920Z,9.87
2018-04-14T01:50:19.800Z,9.89
2018-04-14T01:52:46.764Z,9.90
2018-04-14T01:55:14.443Z,9.89
2018-04-14T01:57:41.356Z,9.95
2018-04-14T02:00:08.992Z,9.92
2018-04-14T02:02:35.921Z,9.96
2018-04-14T02:05:02.944Z,9.96
2018-04-14T02:07:29.907Z,9.98
2018-04-14T02:09:56.847Z,10.02
2018-04-14T02:12:23.829Z,10.00
2018-04-14T02:14:51.495Z,9.95
2018-04-14T02:17:18.425Z,9.92
2018-04-14T02:19:45.367Z,9.88
2018-04-14T02:22:12.619Z,9.92
2018-04-14T02:24:39.505Z,9.86
2018-04-14T02:27:06.391Z,9.89
2018-04-14T02:29:33.298Z,9.90
2018-04-14T02:32:00.229Z,9.88
2018-04-14T02:34:27.566Z,9.92
2018-04-14T02:36:54.462Z,9.88
2018-04-14T02:39:22.069Z,9.86
2018-04-14T02:41:49.021Z,9.78
2018-04-14T02:44:16.077Z,9.76
2018-04-14T02:46:42.984Z,9.74
2018-04-14T02:49:09.859Z,9.73
2018-04-14T02:51:36.812Z,9.70
2018-04-14T02:54:03.767Z,9.60
2018-04-14T02:56:30.840Z,9.62
2018-04-14T02:58:57.724Z,9.66
2018-04-14T03:01:24.614Z,9.59
2018-04-14T03:03:51.526Z,9.62
2018-04-14T03:06:18.457Z,9.64
2018-04-14T03:08:45.426Z,9.66
2018-04-14T03:11:12.301Z,9.64
2018-04-14T03:13:39.292Z,9.64
2018-04-14T03:16:06.229Z,9.65
2018-04-14T03:18:34.184Z,9.53
2018-04-14T03:21:01.797Z,9.53
2018-04-14T03:23:29.460Z,9.54
2018-04-14T03:25:56.374Z,9.57
2018-04-14T03:28:23.257Z,9.58
2018-04-14T03:30:50.180Z,9.61
2018-04-14T03:33:17.064Z,9.59
2018-04-14T03:35:44.034Z,9.61
2018-04-14T03:38:11.945Z,9.52
2018-04-14T03:40:38.877Z,9.53
2018-04-14T03:43:05.772Z,9.54
2018-04-14T03:45:32.763Z,9.56
2018-04-14T03:47:59.649Z,9.57
2018-04-14T03:50:26.617Z,9.53
2018-04-14T03:52:53.676Z,9.55
2018-04-14T03:55:22.183Z,9.56
2018-04-14T03:57:49.077Z,9.52
2018-04-14T04:00:15.961Z,9.50
2018-04-14T04:02:43.728Z,9.53
2018-04-14T04:05:10.711Z,9.51
2018-04-14T04:07:37.626Z,9.45
2018-04-14T04:10:05.308Z,9.45
2018-04-14T04:12:32.215Z,9.45
2018-04-14T04:14:59.137Z,9.45
2018-04-14T04:17:26.213Z,9.43
2018-04-14T04:20:12.094Z,9.43
2018-04-14T04:22:57.144Z,9.38
2018-04-14T04:25:41.689Z,9.37
2018-04-14T04:28:08.864Z,9.39
2018-04-14T04:30:35.759Z,9.35
2018-04-14T04:33:03.421Z,9.31
2018-04-14T04:35:31.093Z,9.35
2018-04-14T04:37:57.976Z,9.40
2018-04-14T04:40:24.860Z,9.35
2018-04-14T04:42:51.771Z,9.39
2018-04-14T04:45:18.784Z,9.38
2018-04-14T04:47:45.740Z,9.35
2018-04-14T04:50:12.621Z,9.37
2018-04-14T04:52:39.540Z,9.34
2018-04-14T04:55:06.421Z,9.32
2018-04-14T04:57:33.319Z,9.35
2018-04-14T05:00:00.287Z,9.36
2018-04-14T05:02:27.258Z,9.37
2018-04-14T05:04:54.241Z,9.39
2018-04-14T05:07:21.161Z,9.33
2018-04-14T05:09:48.080Z,9.36
2018-04-14T05:12:15.817Z,9.38
2018-04-14T05:14:42.745Z,9.37
2018-04-14T05:17:09.665Z,9.37
2018-04-14T05:19:36.982Z,9.34
2018-04-14T05:22:03.886Z,9.35
2018-04-14T05:24:30.905Z,9.38
2018-04-14T05:26:57.795Z,9.38
2018-04-14T05:29:24.972Z,9.41
2018-04-14T05:31:51.929Z,9.40
2018-04-14T05:34:18.800Z,9.38
2018-04-14T05:36:45.884Z,9.36
2018-04-14T05:39:12.768Z,9.33
2018-04-14T05:41:39.687Z,9.34
2018-04-14T05:44:06.672Z,9.31
2018-04-14T05:46:33.600Z,9.34
2018-04-14T05:49:00.663Z,9.29
2018-04-14T05:51:27.634Z,9.28
2018-04-14T05:53:54.516Z,9.30
2018-04-14T05:56:21.443Z,9.31
2018-04-14T05:58:49.068Z,9.32
2018-04-14T06:01:16.000Z,9.29
2018-04-14T06:03:42.941Z,9.29
2018-04-14T06:06:09.912Z,9.28
2018-04-14T06:08:36.793Z,9.31
2018-04-14T06:11:03.702Z,9.32
2018-04-14T06:13:30.704Z,9.34
2018-04-14T06:15:57.639Z,9.29
2018-04-14T06:18:24.552Z,9.26
2018-04-14T06:20:51.593Z,9.28
2018-04-14T06:23:18.620Z,9.29
2018-04-14T06:25:45.507Z,9.31
2018-04-14T06:28:13.226Z,9.30
2018-04-14T06:30:40.093Z,9.31
2018-04-14T06:33:07.281Z,9.32
2018-04-14T06:35:34.892Z,9.30
2018-04-14T06:38:01.789Z,9.33
2018-04-14T06:40:29.753Z,9.35
2018-04-14T06:42:57.433Z,9.37
2018-04-14T06:45:24.400Z,9.41
2018-04-14T06:47:51.369Z,9.46
2018-04-14T06:50:18.378Z,9.51
2018-04-14T06:52:45.334Z,9.51
2018-04-14T06:55:12.300Z,9.55
2018-04-14T06:57:39.207Z,9.58
2018-04-14T07:00:06.864Z,9.54
2018-04-14T07:02:34.541Z,9.56
2018-04-14T07:05:01.506Z,9.57
2018-04-14T07:07:28.381Z,9.56
2018-04-14T07:09:55.441Z,9.55
2018-04-14T07:12:23.864Z,9.59
2018-04-14T07:14:56.981Z,9.68
2018-04-14T07:17:23.930Z,9.70
2018-04-14T07:19:51.282Z,9.66
2018-04-14T07:22:18.576Z,9.71
2018-04-14T07:24:46.221Z,9.72
2018-04-14T07:27:13.137Z,9.69
2018-04-14T07:29:40.009Z,9.76
2018-04-14T07:32:06.929Z,9.77
2018-04-14T07:34:33.857Z,9.80
2018-04-14T07:37:00.791Z,9.79
2018-04-14T07:39:28.465Z,9.72
2018-04-14T07:41:55.334Z,9.62
2018-04-14T07:44:22.304Z,9.64
2018-04-14T07:46:50.443Z,9.64
2018-04-14T07:49:18.250Z,9.66
2018-04-14T07:51:46.060Z,9.73
2018-04-14T07:54:12.987Z,9.81
2018-04-14T07:56:39.909Z,9.87
2018-04-14T07:59:06.805Z,9.98
2018-04-14T08:01:33.731Z,10.00
2018-04-14T08:04:00.882Z,10.04
2018-04-14T08:06:28.081Z,10.01
2018-04-14T08:08:55.156Z,10.06
2018-04-14T08:11:22.108Z,10.12
2018-04-14T08:13:49.028Z,10.04
2018-04-14T08:16:15.925Z,10.04
2018-04-14T08:18:42.853Z,9.98
2018-04-14T08:21:09.806Z,10.04
2018-04-14T08:23:36.734Z,10.04
2018-04-14T08:26:03.686Z,10.01
2018-04-14T08:28:30.579Z,9.98
2018-04-14T08:30:57.536Z,9.89
2018-04-14T08:33:24.471Z,9.93
2018-04-14T08:35:51.412Z,9.86
2018-04-14T08:38:18.304Z,9.98
2018-04-14T08:40:45.280Z,9.98
2018-04-14T08:43:12.961Z,9.98
2018-04-14T08:45:41.197Z,10.05
2018-04-14T08:48:08.118Z,10.12
2018-04-14T08:50:35.083Z,10.11
2018-04-14T08:53:02.806Z,10.08
2018-04-14T08:55:30.554Z,10.12
2018-04-14T08:57:58.416Z,10.11
2018-04-14T09:00:26.040Z,10.06
2018-04-14T09:02:52.913Z,10.01
2018-04-14T09:05:19.990Z,10.04
2018-04-14T09:07:47.610Z,10.09
2018-04-14T09:10:14.501Z,10.18
2018-04-14T09:12:41.435Z,10.17
2018-04-14T09:15:14.451Z,10.15
2018-04-14T09:17:41.391Z,10.17
2018-04-14T09:20:08.337Z,10.20
2018-04-14T09:22:35.266Z,10.20
2018-04-14T09:25:02.251Z,10.21
2018-04-14T09:27:29.153Z,10.07
2018-04-14T09:29:56.822Z,10.12
2018-04-14T09:32:24.457Z,10.14
2018-04-14T09:34:51.415Z,10.17
2018-04-14T09:37:19.054Z,10.11
2018-04-14T09:39:46.297Z,10.19
2018-04-14T09:42:13.214Z,10.27
2018-04-14T09:44:40.089Z,10.22
2018-04-14T09:47:07.039Z,10.26
2018-04-14T09:49:33.974Z,10.29
2018-04-14T09:52:00.984Z,10.34
2018-04-14T09:54:27.900Z,10.27
2018-04-14T09:56:54.844Z,10.24
2018-04-14T09:59:21.767Z,10.22
2018-04-14T10:01:50.655Z,10.13
2018-04-14T10:04:17.655Z,10.12
2018-04-14T10:06:45.286Z,10.15
2018-04-14T10:09:12.214Z,10.12
2018-04-14T10:11:39.083Z,10.18
2018-04-14T10:14:06.006Z,10.26
2018-04-14T10:16:33.168Z,10.38
2018-04-14T10:19:00.092Z,10.34
2018-04-14T10:21:26.974Z,10.34
2018-04-14T10:23:53.940Z,10.28
2018-04-14T10:26:21.558Z,10.25
2018-04-14T10:28:48.474Z,10.20
2018-04-14T10:31:15.396Z,10.23
2018-04-14T10:33:43.058Z,10.28
2018-04-14T10:36:10.683Z,10.33
2018-04-14T10:38:37.617Z,10.38
2018-04-14T10:41:04.548Z,10.40
2018-04-14T10:43:31.415Z,10.36
2018-04-14T10:45:58.353Z,10.50
2018-04-14T10:48:25.234Z,10.56
2018-04-14T10:50:52.208Z,10.57
2018-04-14T10:53:19.153Z,10.60
2018-04-14T10:55:46.181Z,10.61
2018-04-14T10:58:16.009Z,10.61
2018-04-14T11:00:42.948Z,10.57
2018-04-14T11:03:09.856Z,10.54
2018-04-14T11:05:36.837Z,10.52
2018-04-14T11:08:04.476Z,10.62
2018-04-14T11:10:31.402Z,10.58
2018-04-14T11:12:58.332Z,10.61
2018-04-14T11:15:25.266Z,10.59
2018-04-14T11:17:52.201Z,10.74
2018-04-14T11:20:19.949Z,10.98
2018-04-14T11:22:47.574Z,11.02
2018-04-14T11:25:14.575Z,11.09
2018-04-14T11:27:42.207Z,11.16
2018-04-14T11:30:09.146Z,11.17
2018-04-14T11:32:36.065Z,11.22
2018-04-14T11:35:03.023Z,11.31
2018-04-14T11:37:29.951Z,11.34
2018-04-14T11:39:56.891Z,11.37
2018-04-14T11:42:23.785Z,11.29
2018-04-14T11:44:50.745Z,11.21
2018-04-14T11:47:18.368Z,11.29
2018-04-14T11:49:45.348Z,11.37
2018-04-14T11:52:13.033Z,11.45
2018-04-14T11:54:40.998Z,11.57
2018-04-14T11:57:09.485Z,11.49
2018-04-14T11:59:37.199Z,11.46
2018-04-14T12:02:04.191Z,11.49
2018-04-14T12:04:31.862Z,11.48
2018-04-14T12:06:59.472Z,11.38
2018-04-14T12:09:26.542Z,11.34
2018-04-14T12:11:54.210Z,11.29
2018-04-14T12:14:21.108Z,11.15
2018-04-14T12:16:48.036Z,11.14
2018-04-14T12:19:16.052Z,11.12
2018-04-14T12:21:43.002Z,11.19
2018-04-14T12:24:09.911Z,11.28
2018-04-14T12:26:39.354Z,11.43
2018-04-14T12:29:06.282Z,11.62
2018-04-14T12:31:33.211Z,11.70
2018-04-14T12:34:00.188Z,11.62
2018-04-14T12:36:27.130Z,11.62
2018-04-14T12:38:54.045Z,11.58
2018-04-14T12:41:20.991Z,11.46
2018-04-14T12:43:47.876Z,11.52
2018-04-14T12:46:14.792Z,11.47
2018-04-14T12:48:41.657Z,11.55
2018-04-14T12:51:08.624Z,11.53
2018-04-14T12:53:35.496Z,11.57
2018-04-14T12:56:03.129Z,11.36
2018-04-14T12:58:30.086Z,11.33
2018-04-14T13:00:57.040Z,11.54
2018-04-14T13:03:23.982Z,11.71
2018-04-14T13:05:50.921Z,11.86
2018-04-14T13:08:17.799Z,12.22
2018-04-14T13:10:45.461Z,12.39
2018-04-14T13:13:13.090Z,12.46
2018-04-14T13:15:40.011Z,12.58
2018-04-14T13:18:06.925Z,12.56
2018-04-14T13:20:34.212Z,12.51
2018-04-14T13:23:01.075Z,12.44
2018-04-14T13:25:28.063Z,12.45
2018-04-14T13:27:55.785Z,12.39
2018-04-14T13:30:22.659Z,12.43
2018-04-14T13:32:51.261Z,12.35
2018-04-14T13:35:18.919Z,12.24
2018-04-14T13:37:46.529Z,12.07
2018-04-14T13:40:13.416Z,11.97
2018-04-14T13:42:40.335Z,11.97
2018-04-14T13:45:07.221Z,11.92
2018-04-14T13:47:34.933Z,11.92
2018-04-14T13:50:02.430Z,11.98
2018-04-14T13:52:30.136Z,12.01
2018-04-14T13:54:57.029Z,12.06
2018-04-14T13:57:23.968Z,12.08
2018-04-14T13:59:50.845Z,12.06
2018-04-14T14:02:20.405Z,12.22
2018-04-14T14:04:47.281Z,12.41
2018-04-14T14:07:14.285Z,12.51
2018-04-14T14:09:41.144Z,12.53
2018-04-14T14:12:08.220Z,12.49
2018-04-14T14:14:35.916Z,12.43
2018-04-14T14:17:02.936Z,12.20
2018-04-14T14:19:30.688Z,12.14
2018-04-14T14:21:57.580Z,12.16
2018-04-14T14:24:24.567Z,12.13
2018-04-14T14:26:51.453Z,12.19
2018-04-14T14:29:18.432Z,12.19
2018-04-14T14:31:45.305Z,12.15
2018-04-14T14:34:12.283Z,12.07
2018-04-14T14:36:39.900Z,12.11
2018-04-14T14:39:06.818Z,12.16
2018-04-14T14:41:33.689Z,12.22
2018-04-14T14:44:00.617Z,12.26
2018-04-14T14:46:27.598Z,12.16
2018-04-14T14:48:54.528Z,12.19
2018-04-14T14:51:21.492Z,12.15
2018-04-14T14:53:48.413Z,12.18
2018-04-14T14:56:15.730Z,12.20
2018-04-14T14:58:43.434Z,12.15
2018-04-14T15:01:10.732Z,12.11
2018-04-14T15:03:37.751Z,12.13
2018-04-14T15:06:06.443Z,12.15
2018-04-14T15:08:33.380Z,12.10
2018-04-14T15:11:00.265Z,12.12
2018-04-14T15:13:27.184Z,12.14
2018-04-14T15:15:54.145Z,12.22
2018-04-14T15:18:21.064Z,12.25
2018-04-14T15:20:48.024Z,12.24
2018-04-14T15:23:14.951Z,12.26
2018-04-14T15:25:42.012Z,12.24
2018-04-14T15:28:08.957Z,12.25
2018-04-14T15:30:35.873Z,12.27
2018-04-14T15:33:02.774Z,12.25
2018-04-14T15:35:29.692Z,12.26
2018-04-14T15:37:56.567Z,12.36
2018-04-14T15:40:23.484Z,12.44
2018-04-14T15:42:50.378Z,12.48
2018-04-14T15:45:19.395Z,12.51
2018-04-14T15:47:46.622Z,12.54
2018-04-14T15:50:14.589Z,12.52
2018-04-14T15:52:42.269Z,12.56
2018-04-14T15:55:09.271Z,12.52
2018-04-14T15:57:36.363Z,12.50
2018-04-14T16:00:04.931Z,12.51
2018-04-14T16:02:33.568Z,12.48
2018-04-14T16:05:00.494Z,12.45
2018-04-14T16:07:27.424Z,12.38
2018-04-14T16:09:54.360Z,12.40
2018-04-14T16:12:21.999Z,12.40
2018-04-14T16:14:53.798Z,12.43
2018-04-14T16:17:21.418Z,12.43
2018-04-14T16:19:48.334Z,12.42
2018-04-14T16:22:15.347Z,12.39
2018-04-14T16:24:43.034Z,12.32
2018-04-14T16:27:10.092Z,12.31
2018-04-14T16:29:36.978Z,12.31
2018-04-14T16:32:03.972Z,12.31
2018-04-14T16:34:30.865Z,12.35
2018-04-14T16:36:58.445Z,12.32
2018-04-14T16:39:25.475Z,12.30
2018-04-14T16:41:52.530Z,12.35
2018-04-14T16:44:20.129Z,12.35
2018-04-14T16:46:47.786Z,12.33
2018-04-14T16:49:15.443Z,12.38
2018-04-14T16:51:45.335Z,12.35
2018-04-14T16:54:12.215Z,12.33
2018-04-14T16:56:39.890Z,12.34
2018-04-14T16:59:06.823Z,12.35
2018-04-14T17:01:34.524Z,12.37
2018-04-14T17:04:01.569Z,12.34
2018-04-14T17:06:28.503Z,12.34
2018-04-14T17:08:55.436Z,12.36
2018-04-14T17:11:23.148Z,12.35
2018-04-14T17:13:50.018Z,12.35
2018-04-14T17:16:17.007Z,12.35
2018-04-14T17:18:43.876Z,12.34
2018-04-14T17:21:10.846Z,12.35
2018-04-14T17:23:37.826Z,12.35
2018-04-14T17:26:04.797Z,12.36
2018-04-14T17:28:32.325Z,12.33
2018-04-14T17:30:59.985Z,12.34
2018-04-14T17:33:27.201Z,12.23
2018-04-14T17:35:54.134Z,12.27
2018-04-14T17:38:21.063Z,12.29
2018-04-14T17:40:47.953Z,12.30
2018-04-14T17:43:14.857Z,12.30
2018-04-14T17:45:41.732Z,12.25
2018-04-14T17:48:09.380Z,12.25
2018-04-14T17:50:36.257Z,12.24
2018-04-14T17:53:03.230Z,12.21
2018-04-14T17:55:30.845Z,12.21
2018-04-14T17:57:57.755Z,12.20
2018-04-14T18:00:24.667Z,12.13
2018-04-14T18:02:51.626Z,12.13
2018-04-14T18:05:19.240Z,12.05
2018-04-14T18:07:46.175Z,12.06
2018-04-14T18:10:13.904Z,12.05
2018-04-14T18:12:41.683Z,11.96
2018-04-14T18:15:08.551Z,12.01
2018-04-14T18:17:35.565Z,12.00
2018-04-14T18:20:02.600Z,11.99
2018-04-14T18:22:29.564Z,11.96
2018-04-14T18:24:58.099Z,11.82
2018-04-14T18:27:24.976Z,11.87
2018-04-14T18:29:53.013Z,11.87
2018-04-14T18:32:19.877Z,11.84
2018-04-14T18:34:46.787Z,11.86
2018-04-14T18:37:13.753Z,11.73
2018-04-14T18:39:40.840Z,11.70
2018-04-14T18:42:07.766Z,11.74
2018-04-14T18:44:34.722Z,11.73
2018-04-14T18:47:01.652Z,11.75
2018-04-14T18:49:28.655Z,11.67
2018-04-14T18:51:55.734Z,11.77
2018-04-14T18:54:22.656Z,11.75
2018-04-14T18:56:49.580Z,11.68
2018-04-14T18:59:17.240Z,11.72
2018-04-14T19:01:44.144Z,11.74
2018-04-14T19:04:11.135Z,11.74
2018-04-14T19:06:38.759Z,11.73
2018-04-14T19:09:05.742Z,11.73
2018-04-14T19:11:33.440Z,11.72
2018-04-14T19:14:00.345Z,11.68
2018-04-14T19:16:27.960Z,11.69
2018-04-14T19:18:55.050Z,11.71
2018-04-14T19:21:22.021Z,11.74
2018-04-14T19:23:49.624Z,11.72
2018-04-14T19:26:16.700Z,11.70
2018-04-14T19:28:43.834Z,11.68
2018-04-14T19:31:10.723Z,11.60
2018-04-14T19:33:37.640Z,11.61
2018-04-14T19:36:05.991Z,11.65
2018-04-14T19:38:33.448Z,11.64
2018-04-14T19:41:00.420Z,11.67
2018-04-14T19:43:28.024Z,11.67
2018-04-14T19:45:54.936Z,11.65
2018-04-14T19:48:22.103Z,11.58
2018-04-14T19:50:49.858Z,11.60
2018-04-14T19:53:16.742Z,11.59
2018-04-14T19:55:43.750Z,11.64
2018-04-14T19:58:10.702Z,11.61
2018-04-14T20:00:37.698Z,11.61
2018-04-14T20:03:04.613Z,11.61
2018-04-14T20:05:32.292Z,11.55
2018-04-14T20:07:59.236Z,11.62
2018-04-14T20:10:26.185Z,11.62
2018-04-14T20:12:53.058Z,11.65
2018-04-14T20:15:20.026Z,11.61
2018-04-14T20:17:46.897Z,11.62
2018-04-14T20:20:14.557Z,11.62
2018-04-14T20:22:41.526Z,11.54
2018-04-14T20:25:08.635Z,11.57
2018-04-14T20:27:35.504Z,11.55
2018-04-14T20:30:03.198Z,11.56
2018-04-14T20:32:30.105Z,11.60
2018-04-14T20:34:57.278Z,11.45
2018-04-14T20:37:24.898Z,11.50
2018-04-14T20:39:51.819Z,11.47
2018-04-14T20:42:18.727Z,11.39
2018-04-14T20:44:46.587Z,11.28
2018-04-14T20:47:14.183Z,11.28
2018-04-14T20:49:41.056Z,11.20
2018-04-14T20:52:07.967Z,11.16
2018-04-14T20:54:34.869Z,11.10
2018-04-14T20:57:01.776Z,11.22
2018-04-14T20:59:29.029Z,11.08
2018-04-14T21:01:56.698Z,11.17
2018-04-14T21:04:23.627Z,11.22
2018-04-14T21:06:50.876Z,11.25
2018-04-14T21:09:17.805Z,11.20
2018-04-14T21:11:44.725Z,11.25
2018-04-14T21:14:11.605Z,11.25
2018-04-14T21:16:38.564Z,11.15
2018-04-14T21:19:05.454Z,11.14
2018-04-14T21:21:32.354Z,11.13
2018-04-14T21:23:59.303Z,11.14
2018-04-14T21:26:26.413Z,11.09
2018-04-14T21:28:53.343Z,11.05
2018-04-14T21:31:20.279Z,11.00
2018-04-14T21:33:47.216Z,10.94
2018-04-14T21:36:14.148Z,10.94
2018-04-14T21:38:41.068Z,11.04
2018-04-14T21:41:08.741Z,11.01
2018-04-14T21:43:35.607Z,10.91
2018-04-14T21:46:02.543Z,10.82
2018-04-14T21:48:29.518Z,10.92
2018-04-14T21:50:56.488Z,10.88
2018-04-14T21:53:23.513Z,10.92
2018-04-14T21:55:50.441Z,10.94
2018-04-14T21:58:17.306Z,10.94
2018-04-14T22:00:44.243Z,10.93
2018-04-14T22:03:11.107Z,10.93
2018-04-14T22:05:38.049Z,10.93
2018-04-14T22:08:04.945Z,10.95
2018-04-14T22:10:31.832Z,10.89
2018-04-14T22:12:58.745Z,10.74
2018-04-14T22:15:25.828Z,10.71
2018-04-14T22:17:53.595Z,10.59
2018-04-14T22:20:20.471Z,10.50
2018-04-14T22:22:48.321Z,10.54
2018-04-14T22:25:15.249Z,10.54
2018-04-14T22:27:42.111Z,10.50
2018-04-14T22:30:09.041Z,10.46
2018-04-14T22:32:35.973Z,10.40
2018-04-14T22:35:02.943Z,10.33
2018-04-14T22:37:29.845Z,10.22
2018-04-14T22:39:56.763Z,10.11
2018-04-14T22:42:24.661Z,10.09
2018-04-14T22:44:51.578Z,9.97
2018-04-14T22:47:19.184Z,9.95
2018-04-14T22:49:46.154Z,9.90
2018-04-14T22:52:13.021Z,9.78
2018-04-14T22:54:40.675Z,9.67
2018-04-14T22:57:07.544Z,9.63
2018-04-14T22:59:35.307Z,9.67
2018-04-14T23:02:02.940Z,9.60
2018-04-14T23:04:29.909Z,9.54
2018-04-14T23:06:57.569Z,9.57
2018-04-14T23:09:25.272Z,9.51
2018-04-14T23:11:52.243Z,9.47
2018-04-14T23:14:19.232Z,9.40
2018-04-14T23:16:46.854Z,9.38
2018-04-14T23:19:13.905Z,9.38
2018-04-14T23:21:40.777Z,9.32
2018-04-14T23:24:07.894Z,9.32
2018-04-14T23:26:35.652Z,9.37
2018-04-14T23:29:02.566Z,9.37
2018-04-14T23:31:30.175Z,9.33
2018-04-14T23:33:58.118Z,9.34
2018-04-14T23:36:24.988Z,9.32
2018-04-14T23:38:51.902Z,9.32
2018-04-14T23:41:18.829Z,9.29
2018-04-14T23:43:46.527Z,9.25
2018-04-14T23:46:13.396Z,9.19
2018-04-14T23:48:40.298Z,9.09
2018-04-14T23:51:07.185Z,8.99
2018-04-14T23:53:34.109Z,9.01
2018-04-14T23:56:01.076Z,8.98
2018-04-14T23:58:28.166Z,8.90
